13  °C
Temperature
55  °F
Temperature
45  °F
 Dewpoint
7  °C
  Dewpoint
67  %
 Humidity
  Temperature
21  km/h
Wind Speed
11  kts
Wind Speed
13  mph
Wind Speed
5.8  m/s
Wind Speed
340°
North North
West

Wind Speed
Mostly Clear
Conditions
Pressure 1021.92 (hPa) - 30.18 (inHG)
Visibility 10.0 (km) - 6.2 (mi)

Sky Conditions
LTBA
Location Atatürk International 10 km (6.22 mi)
Metar :LTBA 252050Z 34011KT CAVOK 13/07 Q1022 NOSIG RMK RWY17L 36008KT RWY05 34007KT RWY23 01008KT
Thu 25th April 23:50 pm

Nearest Airport
https://www.checkwx.com/weather/
  Metar Aviation API Data Provided by https://www.checkwx.com/ Original CSS/SVG/PHP scripts by weather34.com © 2015-2019